Time;durP1;ratioP1;P1;durP2;ratioP2;P2;SDS_P1;SDS_P2;PMS_P1;PMS_P2;Temp;Humidity;BMP_temperature;BMP_pressure;BME280_temperature;BME280_humidity;BME280_pressure;Samples;Min_cycle;Max_cycle;Signal;HPM_P1;HPM_P2
2022/08/09 00:01:28;;;;;;;4.00;3.70;;;17.20;99.90;;;;;;5101003;28;21087;-52
2022/08/09 00:03:59;;;;;;;5.13;4.40;;;17.20;99.90;;;;;;5100883;28;20521;-53
2022/08/09 00:06:30;;;;;;;4.13;3.73;;;17.10;99.90;;;;;;5100701;28;20498;-54
2022/08/09 00:08:57;;;;;;;5.33;3.47;;;17.20;99.90;;;;;;5101203;28;20798;-49
2022/08/09 00:11:25;;;;;;;4.27;3.93;;;17.20;99.90;;;;;;5100474;28;20495;-50
2022/08/09 00:13:53;;;;;;;4.43;4.03;;;17.20;99.90;;;;;;5100306;28;20488;-51
2022/08/09 00:16:25;;;;;;;6.43;4.00;;;17.20;99.90;;;;;;5100805;28;20446;-56
2022/08/09 00:18:52;;;;;;;4.30;3.57;;;17.20;99.90;;;;;;5101075;28;20901;-51
2022/08/09 00:21:20;;;;;;;6.63;3.77;;;17.10;99.90;;;;;;5101123;28;20537;-53
2022/08/09 00:23:47;;;;;;;3.63;3.30;;;17.20;99.90;;;;;;5100328;28;20435;-50
2022/08/09 00:26:14;;;;;;;4.40;4.00;;;17.10;99.90;;;;;;5100633;28;20566;-51
2022/08/09 00:28:42;;;;;;;3.50;3.20;;;17.00;99.90;;;;;;5100637;28;20784;-51
2022/08/09 00:31:09;;;;;;;3.93;3.13;;;17.00;99.90;;;;;;5100541;28;20436;-51
2022/08/09 00:33:41;;;;;;;4.53;2.93;;;16.90;99.90;;;;;;5100838;28;20814;-61
2022/08/09 00:36:10;;;;;;;4.00;3.27;;;16.90;99.90;;;;;;5100117;28;20437;-51
2022/08/09 00:38:39;;;;;;;5.50;3.17;;;16.90;99.90;;;;;;5100315;28;20484;-51
2022/08/09 00:41:07;;;;;;;3.63;3.33;;;16.80;99.90;;;;;;5100870;28;20902;-51
2022/08/09 00:43:36;;;;;;;3.10;2.80;;;16.80;99.90;;;;;;5100632;28;20439;-54
2022/08/09 00:46:09;;;;;;;4.30;3.60;;;16.70;99.90;;;;;;5100257;28;20957;-54
2022/08/09 00:48:38;;;;;;;4.10;3.40;;;16.70;99.90;;;;;;5100055;28;20732;-52
2022/08/09 00:51:09;;;;;;;4.70;3.70;;;16.70;99.90;;;;;;5098703;28;20551;-49
2022/08/09 00:53:39;;;;;;;3.93;3.40;;;16.70;99.90;;;;;;5098089;28;20432;-58
2022/08/09 00:56:08;;;;;;;3.63;3.20;;;16.70;99.90;;;;;;5098651;28;20458;-56
2022/08/09 00:58:35;;;;;;;6.43;3.60;;;16.70;99.90;;;;;;5097798;28;20465;-51
2022/08/09 01:01:07;;;;;;;3.63;3.33;;;16.70;99.90;;;;;;5099461;28;20506;-51
2022/08/09 01:03:44;;;;;;;4.40;4.00;;;16.60;99.90;;;;;;5099503;28;20457;-51
2022/08/09 01:06:17;;;;;;;3.50;3.20;;;16.50;99.90;;;;;;5098282;28;20541;-48
2022/08/09 01:08:54;;;;;;;3.90;3.50;;;16.50;99.90;;;;;;5098746;28;20430;-52
2022/08/09 01:11:35;;;;;;;4.03;3.63;;;16.40;99.90;;;;;;5098479;28;20464;-50
2022/08/09 01:14:10;;;;;;;3.47;3.17;;;16.40;99.90;;;;;;5098002;28;20575;-55
2022/08/09 01:16:42;;;;;;;3.70;3.30;;;16.40;99.90;;;;;;5098776;28;20462;-54
2022/08/09 01:19:33;;;;;;;4.70;4.30;;;16.40;99.90;;;;;;5099746;28;20438;-56
2022/08/09 01:22:14;;;;;;;3.50;3.00;;;16.40;99.90;;;;;;5099852;28;20431;-55
2022/08/09 01:24:57;;;;;;;4.40;3.30;;;16.40;99.90;;;;;;5099056;28;20446;-52
2022/08/09 01:27:27;;;;;;;4.70;3.17;;;16.20;99.90;;;;;;5099459;28;20583;-55
2022/08/09 01:29:58;;;;;;;4.63;3.53;;;16.30;99.90;;;;;;5099358;28;20899;-55
2022/08/09 01:32:34;;;;;;;4.97;3.37;;;16.30;99.90;;;;;;5099178;28;20470;-54
2022/08/09 01:35:06;;;;;;;4.10;3.70;;;16.20;99.90;;;;;;5099528;28;20434;-49
2022/08/09 01:37:36;;;;;;;3.50;3.20;;;16.20;99.90;;;;;;5099529;28;20513;-53
2022/08/09 01:40:07;;;;;;;4.57;3.80;;;16.10;99.90;;;;;;5098770;28;20435;-55
2022/08/09 01:42:38;;;;;;;4.40;4.00;;;16.10;99.90;;;;;;5099206;28;20950;-49
2022/08/09 01:45:07;;;;;;;9.50;4.43;;;16.10;99.90;;;;;;5099153;28;20863;-53
2022/08/09 01:47:35;;;;;;;5.13;4.67;;;16.00;99.90;;;;;;5099031;28;20467;-57
2022/08/09 01:50:06;;;;;;;4.50;4.10;;;16.00;99.90;;;;;;5099104;28;20806;-51
2022/08/09 01:52:34;;;;;;;5.10;3.83;;;15.90;99.90;;;;;;5098814;28;20530;-54
2022/08/09 01:55:08;;;;;;;5.50;3.90;;;15.90;99.90;;;;;;5099196;28;20466;-53
2022/08/09 01:57:41;;;;;;;6.60;4.47;;;15.90;99.90;;;;;;5099001;28;20453;-56
2022/08/09 02:00:10;;;;;;;6.50;3.80;;;15.90;99.90;;;;;;5098746;28;20456;-54
2022/08/09 02:02:42;;;;;;;4.03;3.73;;;15.90;99.90;;;;;;5098878;28;20476;-54
2022/08/09 02:05:12;;;;;;;5.50;4.90;;;15.90;99.90;;;;;;5098472;28;20478;-51
2022/08/09 02:07:47;;;;;;;6.00;4.50;;;15.80;99.90;;;;;;5098204;28;20855;-51
2022/08/09 02:10:17;;;;;;;6.63;5.00;;;15.90;99.90;;;;;;5098503;28;20459;-53
2022/08/09 02:12:47;;;;;;;4.87;4.47;;;15.80;99.90;;;;;;5098722;28;20554;-48
2022/08/09 02:15:18;;;;;;;6.87;4.40;;;15.80;99.90;;;;;;5098744;28;20484;-50
2022/08/09 02:17:50;;;;;;;7.60;5.70;;;15.70;99.90;;;;;;5098573;28;20885;-49
2022/08/09 02:20:17;;;;;;;5.93;4.90;;;15.70;99.90;;;;;;5098550;28;20566;-55
2022/08/09 02:22:51;;;;;;;5.53;5.00;;;15.60;99.90;;;;;;5098360;28;20809;-48
2022/08/09 02:25:22;;;;;;;5.00;4.60;;;15.60;99.90;;;;;;5098132;28;20538;-52
2022/08/09 02:27:57;;;;;;;5.20;4.70;;;15.60;1.00;;;;;;5098041;28;20495;-50
2022/08/09 02:30:25;;;;;;;5.50;4.43;;;15.50;1.00;;;;;;5098136;28;20520;-50
2022/08/09 02:32:54;;;;;;;7.13;4.73;;;15.40;1.00;;;;;;5097252;28;20469;-51
2022/08/09 02:35:26;;;;;;;5.23;4.73;;;15.50;1.00;;;;;;5098168;28;20470;-50
2022/08/09 02:38:00;;;;;;;7.07;4.83;;;15.50;1.00;;;;;;5097962;28;20526;-57
2022/08/09 02:40:29;;;;;;;5.00;4.60;;;15.50;1.00;;;;;;5098301;28;20465;-49
2022/08/09 02:43:05;;;;;;;9.90;4.60;;;15.40;1.00;;;;;;5098216;28;20435;-52
2022/08/09 02:45:37;;;;;;;5.50;4.73;;;15.40;1.00;;;;;;5098276;28;20439;-52
2022/08/09 02:48:08;;;;;;;4.40;4.00;;;15.40;1.00;;;;;;5097488;28;20488;-55
2022/08/09 02:50:41;;;;;;;6.47;4.80;;;15.30;1.00;;;;;;5097807;28;20559;-57
2022/08/09 02:53:14;;;;;;;5.27;4.30;;;15.30;1.00;;;;;;5098277;28;20459;-52
2022/08/09 02:55:46;;;;;;;6.97;4.10;;;15.30;1.00;;;;;;5097311;28;20525;-52
2022/08/09 02:58:15;;;;;;;5.80;5.20;;;15.30;1.00;;;;;;5097855;28;20504;-50
2022/08/09 03:00:44;;;;;;;5.83;5.23;;;15.30;1.00;;;;;;5097696;28;20831;-52
2022/08/09 03:03:13;;;;;;;6.13;4.70;;;15.30;1.00;;;;;;5097249;28;20446;-51
2022/08/09 03:05:41;;;;;;;6.30;5.00;;;15.20;1.00;;;;;;5097372;28;20460;-55
2022/08/09 03:08:11;;;;;;;5.43;4.70;;;15.20;1.00;;;;;;5097516;28;20578;-53
2022/08/09 03:10:41;;;;;;;7.57;5.63;;;15.20;1.00;;;;;;5097074;28;20471;-51
2022/08/09 03:13:10;;;;;;;6.90;5.10;;;15.20;1.00;;;;;;5097504;28;20940;-55
2022/08/09 03:15:42;;;;;;;6.37;5.77;;;15.30;1.00;;;;;;5097874;28;20496;-53
2022/08/09 03:18:13;;;;;;;5.40;4.90;;;15.20;1.00;;;;;;5097617;28;20478;-52
2022/08/09 03:20:42;;;;;;;5.70;5.20;;;15.20;1.00;;;;;;5097627;28;20442;-54
2022/08/09 03:23:12;;;;;;;5.87;5.37;;;15.20;1.00;;;;;;5097273;28;20744;-50
2022/08/09 03:25:42;;;;;;;6.73;6.00;;;15.20;1.00;;;;;;5097093;28;20769;-51
2022/08/09 03:28:10;;;;;;;5.40;4.90;;;15.10;1.00;;;;;;5096661;28;20488;-52
2022/08/09 03:30:38;;;;;;;6.33;5.73;;;15.10;1.00;;;;;;5097049;28;20765;-51
2022/08/09 03:33:09;;;;;;;5.27;4.80;;;15.10;1.00;;;;;;5097743;28;20474;-49
2022/08/09 03:35:36;;;;;;;8.00;5.40;;;15.00;1.00;;;;;;5097404;28;20431;-49
2022/08/09 03:38:07;;;;;;;5.87;4.97;;;15.00;1.00;;;;;;5097226;28;20496;-56
2022/08/09 03:40:34;;;;;;;9.47;5.40;;;14.90;1.00;;;;;;5097053;28;20471;-51
2022/08/09 03:43:01;;;;;;;6.37;5.27;;;14.90;1.00;;;;;;5097234;28;20665;-52
2022/08/09 03:45:29;;;;;;;7.33;5.47;;;14.90;1.00;;;;;;5097469;28;20434;-52
2022/08/09 03:47:59;;;;;;;5.80;5.13;;;14.80;1.00;;;;;;5097119;28;20951;-48
2022/08/09 03:50:28;;;;;;;6.03;5.47;;;14.90;1.00;;;;;;5097082;28;20465;-50
2022/08/09 03:52:58;;;;;;;6.80;6.00;;;14.80;1.00;;;;;;5097196;28;20896;-50
2022/08/09 03:55:26;;;;;;;5.83;5.00;;;14.80;1.00;;;;;;5097080;28;20468;-51
2022/08/09 03:57:55;;;;;;;7.70;6.23;;;14.80;1.00;;;;;;5097055;28;20435;-51
2022/08/09 04:00:26;;;;;;;5.80;5.20;;;14.70;1.00;;;;;;5096943;28;20473;-54
2022/08/09 04:02:54;;;;;;;8.33;5.70;;;14.70;1.00;;;;;;5097304;28;20482;-52
2022/08/09 04:05:22;;;;;;;6.67;5.43;;;14.80;1.00;;;;;;5097139;28;20960;-49
2022/08/09 04:07:53;;;;;;;5.53;5.03;;;14.80;1.00;;;;;;5096734;28;20492;-56
2022/08/09 04:10:21;;;;;;;4.90;4.30;;;14.80;1.00;;;;;;5097149;28;20515;-52
2022/08/09 04:12:50;;;;;;;5.70;5.20;;;14.70;1.00;;;;;;5097095;28;20471;-54
2022/08/09 04:15:22;;;;;;;6.30;5.53;;;14.80;1.00;;;;;;5096778;28;20557;-54
2022/08/09 04:17:54;;;;;;;5.50;4.80;;;14.70;1.00;;;;;;5095874;28;20442;-50
2022/08/09 04:20:21;;;;;;;5.87;5.23;;;14.70;1.00;;;;;;5097051;28;20723;-56
2022/08/09 04:22:53;;;;;;;5.30;4.80;;;14.80;1.00;;;;;;5096236;28;20471;-52
2022/08/09 04:25:20;;;;;;;6.10;4.70;;;14.70;1.00;;;;;;5096451;28;20485;-52
2022/08/09 04:27:47;;;;;;;10.57;6.07;;;14.60;1.00;;;;;;5096202;28;20579;-49
2022/08/09 04:30:18;;;;;;;6.60;5.20;;;14.70;1.00;;;;;;5096312;28;20468;-56
2022/08/09 04:32:45;;;;;;;7.20;5.53;;;14.60;1.00;;;;;;5097052;28;20469;-50
2022/08/09 04:35:15;;;;;;;11.50;5.70;;;14.60;1.00;;;;;;5099869;28;20496;-52
2022/08/09 04:37:43;;;;;;;5.10;4.30;;;14.70;1.00;;;;;;5100022;28;20457;-54
2022/08/09 04:40:14;;;;;;;10.40;5.20;;;14.60;1.00;;;;;;5099637;28;20980;-53
2022/08/09 04:42:41;;;;;;;6.27;5.67;;;14.70;1.00;;;;;;5099328;28;20460;-51
2022/08/09 04:45:10;;;;;;;6.60;5.17;;;14.70;1.00;;;;;;5100069;28;20739;-55
2022/08/09 04:47:37;;;;;;;6.10;5.13;;;14.70;1.00;;;;;;5100072;28;20571;-49
2022/08/09 04:50:05;;;;;;;8.60;6.00;;;14.70;1.00;;;;;;5100081;28;20533;-49
2022/08/09 04:52:32;;;;;;;6.40;5.37;;;14.80;1.00;;;;;;5099394;28;20884;-51
2022/08/09 04:55:03;;;;;;;5.83;5.10;;;14.80;1.00;;;;;;5100250;28;20460;-49
2022/08/09 04:57:34;;;;;;;5.60;5.03;;;14.80;1.00;;;;;;5100080;28;20460;-53
2022/08/09 05:00:03;;;;;;;6.07;4.97;;;14.80;1.00;;;;;;5099938;28;20467;-53
2022/08/09 05:02:30;;;;;;;5.83;5.20;;;14.80;1.00;;;;;;5099641;28;20886;-49
2022/08/09 05:05:02;;;;;;;5.67;5.13;;;14.90;1.00;;;;;;5099682;28;20559;-49
2022/08/09 05:07:29;;;;;;;5.50;4.67;;;14.90;1.00;;;;;;5100110;28;20496;-50
2022/08/09 05:09:56;;;;;;;7.93;5.43;;;15.00;1.00;;;;;;5099620;28;20958;-51
2022/08/09 05:12:23;;;;;;;6.80;6.10;;;15.00;1.00;;;;;;5099477;28;20441;-52
2022/08/09 05:14:56;;;;;;;6.33;5.73;;;15.10;1.00;;;;;;5097966;28;20779;-50
2022/08/09 05:17:24;;;;;;;7.83;6.77;;;15.10;1.00;;;;;;5098031;28;20735;-49
2022/08/09 05:19:52;;;;;;;8.20;5.57;;;15.10;1.00;;;;;;5097747;28;20439;-51
2022/08/09 05:22:23;;;;;;;6.77;6.07;;;15.20;1.00;;;;;;5098132;28;20439;-51
2022/08/09 05:24:51;;;;;;;18.20;5.60;;;15.20;1.00;;;;;;5098929;28;20559;-53
2022/08/09 05:27:18;;;;;;;6.13;4.97;;;15.30;1.00;;;;;;5098399;28;20583;-55
2022/08/09 05:29:45;;;;;;;6.80;5.10;;;15.40;1.00;;;;;;5098767;28;20862;-52
2022/08/09 05:32:14;;;;;;;6.13;5.17;;;15.40;1.00;;;;;;5098264;28;20898;-52
2022/08/09 05:34:41;;;;;;;8.70;4.70;;;15.50;1.00;;;;;;5097319;28;20431;-52
2022/08/09 05:37:29;;;;;;;6.70;5.60;;;15.60;1.00;;;;;;5098451;28;20559;-52
2022/08/09 05:39:57;;;;;;;5.23;4.53;;;15.70;1.00;;;;;;5097845;28;20470;-49
2022/08/09 05:42:27;;;;;;;5.63;5.03;;;15.80;1.00;;;;;;5098790;28;20460;-51
2022/08/09 05:44:55;;;;;;;5.50;4.87;;;16.00;1.00;;;;;;5098093;28;20467;-51
2022/08/09 05:47:26;;;;;;;5.47;4.80;;;16.10;1.00;;;;;;5099404;28;20999;-53
2022/08/09 05:49:58;;;;;;;6.27;4.80;;;16.20;1.00;;;;;;5098845;28;20458;-55
2022/08/09 05:52:25;;;;;;;5.80;5.17;;;16.30;1.00;;;;;;5098640;28;20435;-51
2022/08/09 05:54:55;;;;;;;6.17;5.57;;;16.40;1.00;;;;;;5098335;28;20433;-57
2022/08/09 05:57:22;;;;;;;5.63;4.93;;;16.50;1.00;;;;;;5098037;28;20452;-52
2022/08/09 05:59:50;;;;;;;4.53;4.13;;;16.60;1.00;;;;;;5097241;28;20543;-55
2022/08/09 06:02:17;;;;;;;5.67;4.67;;;16.80;1.00;;;;;;5097877;28;20555;-52
2022/08/09 06:04:51;;;;;;;8.47;5.00;;;16.90;1.00;;;;;;5097763;28;20843;-52
2022/08/09 06:07:18;;;;;;;5.27;4.70;;;17.10;1.00;;;;;;5098156;28;20492;-52
2022/08/09 06:09:48;;;;;;;9.20;5.33;;;17.20;99.90;;;;;;5098133;28;20439;-52
2022/08/09 06:12:20;;;;;;;6.47;5.23;;;17.40;99.90;;;;;;5098177;28;20464;-57
2022/08/09 06:15:14;;;;;;;6.77;4.83;;;17.70;99.90;;;;;;5097532;28;20845;-52
2022/08/09 06:17:41;;;;;;;8.43;5.27;;;17.90;99.90;;;;;;5097803;28;20510;-58
2022/08/09 06:20:12;;;;;;;7.43;4.47;;;18.10;99.90;;;;;;5098221;28;20435;-55
2022/08/09 06:22:41;;;;;;;4.50;4.10;;;18.40;99.90;;;;;;5098394;28;20468;-54
2022/08/09 06:25:08;;;;;;;6.47;4.40;;;18.70;99.90;;;;;;5098057;28;20438;-56
2022/08/09 06:27:36;;;;;;;6.30;4.77;;;19.00;99.90;;;;;;5097860;28;20929;-56
2022/08/09 06:30:04;;;;;;;7.07;4.60;;;19.20;99.90;;;;;;5097532;28;20471;-57
2022/08/09 06:32:32;;;;;;;5.60;4.07;;;19.30;99.90;;;;;;5097781;28;20466;-57
2022/08/09 06:35:01;;;;;;;6.37;4.80;;;19.50;99.90;;;;;;5098334;28;20457;-58
2022/08/09 06:37:37;;;;;;;6.70;4.90;;;19.80;99.90;;;;;;5097306;28;20484;-56
2022/08/09 06:40:07;;;;;;;5.50;4.47;;;20.00;99.90;;;;;;5100163;28;20491;-58
2022/08/09 06:42:34;;;;;;;5.40;4.90;;;20.00;99.90;;;;;;5115934;28;20521;-57
2022/08/09 06:45:01;;;;;;;4.77;4.37;;;20.10;99.90;;;;;;5118212;28;20896;-58
2022/08/09 06:47:31;;;;;;;4.70;4.20;;;20.30;99.90;;;;;;5101842;28;20833;-53
2022/08/09 06:49:58;;;;;;;4.67;4.27;;;20.50;99.90;;;;;;5097603;28;20529;-57
2022/08/09 06:52:26;;;;;;;5.20;3.73;;;20.80;99.90;;;;;;5097499;28;20712;-56
2022/08/09 06:54:55;;;;;;;5.00;4.37;;;21.10;99.90;;;;;;5097990;28;20498;-54
2022/08/09 06:57:22;;;;;;;4.57;4.17;;;21.40;99.90;;;;;;5097133;28;20427;-58
2022/08/09 06:59:52;;;;;;;5.13;4.37;;;21.40;99.90;;;;;;5097804;28;20464;-58
2022/08/09 07:02:20;;;;;;;4.30;3.90;;;21.30;99.90;;;;;;5097536;28;20909;-58
2022/08/09 07:04:47;;;;;;;6.60;4.53;;;21.70;99.90;;;;;;5097329;28;20491;-55
2022/08/09 07:07:16;;;;;;;4.53;4.13;;;22.10;99.90;;;;;;5097423;28;20471;-56
2022/08/09 07:09:44;;;;;;;6.50;4.17;;;22.20;99.90;;;;;;5106524;28;20805;-55
2022/08/09 07:12:13;;;;;;;5.60;4.67;;;22.30;99.90;;;;;;5117693;28;20923;-53
2022/08/09 07:14:48;;;;;;;5.03;3.77;;;22.50;99.90;;;;;;5117779;28;20840;-58
2022/08/09 07:17:20;;;;;;;6.67;3.80;;;22.70;99.90;;;;;;5116685;28;20490;-57
2022/08/09 07:19:47;;;;;;;4.50;4.10;;;22.90;99.90;;;;;;5116830;28;20837;-58
2022/08/09 07:22:14;;;;;;;3.97;3.33;;;22.90;99.90;;;;;;5117732;28;20953;-57
2022/08/09 07:24:42;;;;;;;4.30;3.90;;;23.10;99.90;;;;;;5117929;28;20524;-56
2022/08/09 07:27:11;;;;;;;4.50;4.10;;;23.40;99.90;;;;;;5117296;28;20502;-57
2022/08/09 07:29:40;;;;;;;4.77;4.33;;;23.60;99.90;;;;;;5116933;28;20460;-57
2022/08/09 07:32:08;;;;;;;5.73;4.77;;;23.80;99.90;;;;;;5117677;28;20459;-56
2022/08/09 07:34:38;;;;;;;4.57;4.10;;;24.00;99.90;;;;;;5117664;28;20459;-59
2022/08/09 07:37:08;;;;;;;4.03;3.73;;;24.10;99.90;;;;;;5117658;28;20507;-58
2022/08/09 07:39:46;;;;;;;8.10;3.93;;;24.00;99.90;;;;;;5109201;28;20458;-59
2022/08/09 07:42:13;;;;;;;4.20;3.00;;;24.10;99.90;;;;;;5093536;28;20544;-57
2022/08/09 07:44:42;;;;;;;5.80;3.63;;;24.30;99.90;;;;;;5094755;28;20431;-57
2022/08/09 07:47:10;;;;;;;4.10;3.70;;;24.30;99.90;;;;;;5095292;28;20861;-54
2022/08/09 07:49:37;;;;;;;4.40;4.00;;;24.50;99.90;;;;;;5095534;28;20599;-57
2022/08/09 07:52:06;;;;;;;5.50;3.40;;;24.80;99.90;;;;;;5095369;28;20456;-57
2022/08/09 07:54:33;;;;;;;4.50;4.03;;;24.60;99.90;;;;;;5092053;28;20490;-56
2022/08/09 07:57:05;;;;;;;3.73;3.43;;;24.80;99.90;;;;;;5095173;28;20442;-57
2022/08/09 07:59:33;;;;;;;5.23;4.13;;;24.90;99.90;;;;;;5092681;28;20448;-57
2022/08/09 08:02:05;;;;;;;4.50;3.63;;;25.10;99.90;;;;;;5093547;28;20459;-56
2022/08/09 08:04:32;;;;;;;3.63;3.33;;;25.00;99.90;;;;;;5095747;28;20480;-58
2022/08/09 08:07:03;;;;;;;4.00;3.53;;;25.40;99.90;;;;;;5095614;28;20453;-57
2022/08/09 08:09:33;;;;;;;4.50;4.10;;;25.50;99.90;;;;;;5099096;28;20476;-57
2022/08/09 08:12:00;;;;;;;3.87;3.50;;;25.60;99.90;;;;;;5099420;28;20518;-55
2022/08/09 08:14:28;;;;;;;4.13;3.83;;;25.90;99.90;;;;;;5098880;28;20494;-55
2022/08/09 08:17:01;;;;;;;4.10;3.70;;;26.10;99.90;;;;;;5098903;28;20459;-56
2022/08/09 08:19:29;;;;;;;4.70;3.53;;;26.10;99.90;;;;;;5098891;28;20514;-58
2022/08/09 08:21:56;;;;;;;5.50;3.97;;;25.90;99.90;;;;;;5099322;28;20448;-54
2022/08/09 08:24:23;;;;;;;6.20;3.80;;;26.30;99.90;;;;;;5099251;28;20452;-54
2022/08/09 08:26:51;;;;;;;4.03;3.57;;;25.80;99.90;;;;;;5098951;28;20452;-57
2022/08/09 08:29:18;;;;;;;4.00;3.13;;;25.90;99.90;;;;;;5099044;28;20525;-56
2022/08/09 08:31:45;;;;;;;4.33;4.00;;;25.80;99.90;;;;;;5098357;28;20456;-58
2022/08/09 08:34:16;;;;;;;3.60;3.23;;;25.60;99.90;;;;;;5096450;28;20471;-57
2022/08/09 08:36:46;;;;;;;4.00;3.70;;;25.80;99.90;;;;;;5098546;28;20452;-58
2022/08/09 08:39:13;;;;;;;3.77;3.47;;;26.30;99.90;;;;;;5098886;28;20459;-58
2022/08/09 08:41:41;;;;;;;4.83;3.63;;;26.50;99.90;;;;;;5098832;28;20460;-57
2022/08/09 08:44:12;;;;;;;4.43;3.40;;;27.10;99.90;;;;;;5099123;28;20456;-58
2022/08/09 08:46:43;;;;;;;4.00;3.60;;;27.40;99.90;;;;;;5098887;28;20897;-58
2022/08/09 08:49:12;;;;;;;4.70;3.87;;;27.70;99.90;;;;;;5098544;28;20546;-58
2022/08/09 08:51:40;;;;;;;4.40;4.00;;;28.20;99.90;;;;;;5098361;28;20460;-56
2022/08/09 08:54:10;;;;;;;4.03;3.73;;;27.70;99.90;;;;;;5098614;28;20531;-58
2022/08/09 08:56:39;;;;;;;6.60;3.53;;;27.50;99.90;;;;;;5098937;28;20474;-54
2022/08/09 08:59:07;;;;;;;4.03;3.57;;;27.70;99.90;;;;;;5096594;28;20448;-57
2022/08/09 09:01:39;;;;;;;4.03;3.23;;;28.00;99.90;;;;;;5094223;28;20471;-58
2022/08/09 09:04:10;;;;;;;4.30;3.93;;;28.50;99.90;;;;;;5096463;28;20563;-57
2022/08/09 09:06:41;;;;;;;4.23;3.83;;;28.80;99.90;;;;;;5098119;28;20466;-58
2022/08/09 09:09:12;;;;;;;4.60;4.20;;;28.40;99.90;;;;;;5095351;28;20527;-56
2022/08/09 09:11:42;;;;;;;5.80;4.17;;;27.90;99.90;;;;;;5099454;28;20525;-58
2022/08/09 09:14:14;;;;;;;4.20;3.90;;;27.60;99.90;;;;;;5099453;28;20520;-58
2022/08/09 09:16:41;;;;;;;4.33;4.03;;;27.70;99.90;;;;;;5099316;28;20467;-58
2022/08/09 09:19:11;;;;;;;4.50;4.10;;;27.40;99.90;;;;;;5098826;28;20463;-58
2022/08/09 09:22:04;;;;;;;4.07;3.67;;;28.10;99.90;;;;;;5099996;28;20461;-58
2022/08/09 09:24:36;;;;;;;3.93;3.50;;;28.30;99.90;;;;;;5099981;28;20555;-57
2022/08/09 09:27:09;;;;;;;5.37;4.37;;;28.60;99.90;;;;;;5099601;28;20511;-58
2022/08/09 09:29:39;;;;;;;3.53;3.23;;;28.80;99.90;;;;;;5099265;28;20492;-59
2022/08/09 09:32:06;;;;;;;4.30;3.50;;;29.00;99.90;;;;;;5098262;28;20487;-57
2022/08/09 09:34:34;;;;;;;4.40;4.03;;;29.30;99.90;;;;;;5099456;28;20514;-58
2022/08/09 09:37:08;;;;;;;4.33;3.60;;;29.10;99.90;;;;;;5093836;28;20512;-53
2022/08/09 09:39:36;;;;;;;4.10;3.70;;;28.80;99.90;;;;;;5085072;28;20820;-59
2022/08/09 09:42:05;;;;;;;3.70;3.30;;;29.30;99.90;;;;;;5099551;28;20769;-60
2022/08/09 09:44:34;;;;;;;4.00;3.50;;;29.10;99.90;;;;;;5098706;28;20551;-54
2022/08/09 09:47:10;;;;;;;6.40;4.30;;;29.30;99.90;;;;;;5099450;28;20461;-59
2022/08/09 09:49:38;;;;;;;3.90;3.50;;;29.90;99.90;;;;;;5099256;28;20488;-57
2022/08/09 09:52:09;;;;;;;4.73;3.63;;;30.10;99.90;;;;;;5104062;28;20452;-53
2022/08/09 09:54:39;;;;;;;4.00;3.60;;;29.70;99.90;;;;;;5119364;28;20525;-55
2022/08/09 09:57:36;;;;;;;4.30;3.70;;;29.80;99.90;;;;;;5119501;28;20542;-58
2022/08/09 10:00:04;;;;;;;5.90;3.40;;;30.20;99.90;;;;;;5119132;28;20460;-59
2022/08/09 10:02:48;;;;;;;4.40;4.00;;;30.60;99.90;;;;;;5119107;28;20434;-56
2022/08/09 10:05:18;;;;;;;4.50;4.10;;;30.70;99.90;;;;;;5118918;28;20459;-55
2022/08/09 10:07:48;;;;;;;4.40;4.07;;;29.20;99.90;;;;;;5103152;28;20556;-54
2022/08/09 10:10:32;;;;;;;6.37;3.80;;;30.00;99.90;;;;;;5096327;28;20481;-59
2022/08/09 10:12:59;;;;;;;3.93;3.53;;;30.30;99.90;;;;;;5097349;28;20563;-56
2022/08/09 10:15:27;;;;;;;4.43;4.07;;;30.60;99.90;;;;;;5091583;28;20481;-56
2022/08/09 10:17:55;;;;;;;4.97;3.70;;;29.90;99.90;;;;;;5095869;28;20443;-56
2022/08/09 10:20:26;;;;;;;4.63;4.23;;;30.50;99.90;;;;;;5090199;28;20465;-59
2022/08/09 10:22:59;;;;;;;4.03;3.43;;;30.50;99.90;;;;;;5094001;28;20551;-55
2022/08/09 10:25:28;;;;;;;3.77;3.47;;;30.10;99.90;;;;;;5095289;28;20545;-58
2022/08/09 10:28:02;;;;;;;3.80;3.50;;;29.80;99.90;;;;;;5098329;28;20465;-59
2022/08/09 10:30:32;;;;;;;4.10;3.80;;;30.20;99.90;;;;;;5098170;28;20932;-56
2022/08/09 10:33:01;;;;;;;4.20;3.90;;;30.60;99.90;;;;;;5096351;28;20841;-56
2022/08/09 10:35:30;;;;;;;4.80;3.80;;;30.80;99.90;;;;;;5097953;28;20884;-56
2022/08/09 10:38:02;;;;;;;4.80;4.30;;;30.50;99.90;;;;;;5094024;28;20916;-58
2022/08/09 10:40:32;;;;;;;4.30;3.60;;;30.40;99.90;;;;;;5097816;28;20449;-59
2022/08/09 10:43:00;;;;;;;3.93;3.63;;;30.70;99.90;;;;;;5097753;28;20562;-58
2022/08/09 10:45:33;;;;;;;5.90;4.03;;;30.80;99.90;;;;;;5097067;28;20461;-54
2022/08/09 10:48:06;;;;;;;4.30;3.97;;;30.90;99.90;;;;;;5097696;28;20513;-57
2022/08/09 10:53:50;;;;;;;4.40;4.10;;;31.10;99.90;;;;;;5097575;28;20436;-57
2022/08/09 10:56:21;;;;;;;4.23;3.93;;;31.10;99.90;;;;;;5098336;28;20461;-56
2022/08/09 10:58:50;;;;;;;3.73;3.43;;;30.90;99.90;;;;;;5097609;28;20749;-55
2022/08/09 11:01:42;;;;;;;4.67;4.10;;;30.30;99.90;;;;;;5096251;28;20807;-58
2022/08/09 11:04:20;;;;;;;4.50;4.10;;;29.30;99.90;;;;;;5088971;28;20806;-59
2022/08/09 11:06:50;;;;;;;4.33;4.03;;;30.20;99.90;;;;;;5093545;28;20460;-59
2022/08/09 11:09:41;;;;;;;4.33;3.93;;;31.00;99.90;;;;;;5097755;28;20594;-58
2022/08/09 11:12:18;;;;;;;4.43;4.03;;;31.30;99.90;;;;;;5096734;28;20464;-55
2022/08/09 11:14:50;;;;;;;4.53;4.13;;;29.40;99.90;;;;;;5096334;28;20546;-57
2022/08/09 11:17:51;;;;;;;3.83;3.53;;;29.40;99.90;;;;;;5097335;28;22037;-57
2022/08/09 11:20:47;;;;;;;4.90;3.70;;;30.80;99.90;;;;;;5095475;28;20451;-55
2022/08/09 11:23:16;;;;;;;4.60;4.07;;;31.60;99.90;;;;;;5083422;28;20479;-58
2022/08/09 11:25:52;;;;;;;4.40;4.10;;;32.00;99.90;;;;;;5096357;28;20456;-58
2022/08/09 11:28:45;;;;;;;4.50;4.20;;;31.80;99.90;;;;;;5097360;28;20459;-56
2022/08/09 11:31:44;;;;;;;4.63;4.23;;;32.00;99.90;;;;;;5093788;28;20456;-57
2022/08/09 11:34:22;;;;;;;5.50;4.37;;;32.30;99.90;;;;;;5092218;28;20459;-58
2022/08/09 11:37:26;;;;;;;4.20;3.90;;;32.10;99.90;;;;;;5091061;28;20560;-59
2022/08/09 11:40:06;;;;;;;5.40;4.20;;;31.60;99.90;;;;;;5093954;28;20459;-53
2022/08/09 11:42:49;;;;;;;4.47;4.17;;;31.90;99.90;;;;;;5096499;28;20464;-52
2022/08/09 11:45:28;;;;;;;4.00;3.70;;;32.00;99.90;;;;;;5097721;28;20459;-56
2022/08/09 11:47:59;;;;;;;5.00;4.50;;;31.70;99.90;;;;;;5101348;28;20529;-57
2022/08/09 11:50:30;;;;;;;4.20;3.90;;;31.80;99.90;;;;;;5101557;28;20495;-55
2022/08/09 11:53:20;;;;;;;4.60;4.20;;;31.60;99.90;;;;;;5100923;28;20470;-52
2022/08/09 11:55:53;;;;;;;4.40;3.70;;;31.60;99.90;;;;;;5097215;28;20459;-57
2022/08/09 11:58:48;;;;;;;4.17;3.80;;;31.00;99.90;;;;;;5098743;28;20554;-55
2022/08/09 12:01:19;;;;;;;5.00;3.40;;;31.80;99.90;;;;;;5098240;28;20459;-57
2022/08/09 12:03:47;;;;;;;4.93;4.53;;;32.50;99.90;;;;;;5099437;28;20969;-56
2022/08/09 12:06:21;;;;;;;5.13;4.73;;;32.70;99.90;;;;;;5100522;28;20459;-51
2022/08/09 12:08:54;;;;;;;4.30;4.00;;;32.60;99.90;;;;;;5110802;28;20461;-59
2022/08/09 12:11:23;;;;;;;4.13;3.83;;;32.80;99.90;;;;;;5119972;28;20463;-55
2022/08/09 12:13:54;;;;;;;4.20;3.80;;;33.00;99.90;;;;;;5121160;28;20494;-56
2022/08/09 12:16:31;;;;;;;3.97;3.70;;;33.20;99.90;;;;;;5121337;28;20458;-57
2022/08/09 12:19:04;;;;;;;4.33;3.93;;;32.80;99.90;;;;;;5096940;28;20818;-56
2022/08/09 12:21:36;;;;;;;5.07;4.33;;;32.80;99.90;;;;;;5103153;28;20441;-58
2022/08/09 12:24:06;;;;;;;4.50;4.10;;;33.10;99.90;;;;;;5108003;28;20490;-58
2022/08/09 12:26:44;;;;;;;4.93;4.10;;;32.80;99.90;;;;;;5103103;28;20456;-56
2022/08/09 12:29:17;;;;;;;4.40;3.97;;;32.70;99.90;;;;;;5110989;28;20781;-59
2022/08/09 12:31:47;;;;;;;5.70;4.00;;;32.60;99.90;;;;;;5097147;28;20731;-55
2022/08/09 12:34:15;;;;;;;4.67;4.23;;;32.90;99.90;;;;;;5117834;28;20459;-58
2022/08/09 12:36:52;;;;;;;4.73;3.70;;;32.90;99.90;;;;;;5119686;28;20461;-59
2022/08/09 12:39:20;;;;;;;4.50;3.77;;;33.20;99.90;;;;;;5105526;28;20467;-56
2022/08/09 12:41:55;;;;;;;4.20;3.90;;;33.30;99.90;;;;;;5100083;28;20463;-59
2022/08/09 12:44:26;;;;;;;4.10;3.80;;;33.40;99.90;;;;;;5098306;28;20552;-59
2022/08/09 12:46:54;;;;;;;3.73;3.50;;;33.60;99.90;;;;;;5097770;28;20457;-59
2022/08/09 12:49:25;;;;;;;3.97;3.67;;;33.60;99.90;;;;;;5086748;28;20463;-53
2022/08/09 12:51:58;;;;;;;4.23;3.90;;;33.20;99.90;;;;;;5099505;28;20472;-58
2022/08/09 12:54:46;;;;;;;4.17;3.87;;;33.60;99.90;;;;;;5098276;28;20434;-58
2022/08/09 12:57:35;;;;;;;4.63;4.27;;;32.70;99.90;;;;;;5099173;28;20919;-58
2022/08/09 13:00:18;;;;;;;4.20;3.90;;;31.80;99.90;;;;;;5100116;28;20437;-58
2022/08/09 13:02:51;;;;;;;5.23;4.20;;;31.30;99.90;;;;;;5099690;28;20899;-56
2022/08/09 13:05:21;;;;;;;4.37;3.97;;;31.30;99.90;;;;;;5098839;28;20472;-58
2022/08/09 13:08:11;;;;;;;4.03;3.70;;;31.60;99.90;;;;;;5099201;28;20460;-58
2022/08/09 13:10:49;;;;;;;4.33;4.03;;;32.60;99.90;;;;;;5098570;28;20936;-57
2022/08/09 13:13:26;;;;;;;4.27;3.90;;;33.20;99.90;;;;;;5099208;28;20562;-57
2022/08/09 13:15:59;;;;;;;4.37;4.07;;;32.60;99.90;;;;;;5098178;28;20442;-57